sensor_id;sensor_type;location;lat;lon;timestamp;P1;durP1;ratioP1;P2;durP2;ratioP2
59938;SDS011;45801;51.810;19.444;2022-08-21T00:01:05;10.00;;;4.40;;
59938;SDS011;45801;51.810;19.444;2022-08-21T00:03:35;10.80;;;4.80;;
59938;SDS011;45801;51.810;19.444;2022-08-21T00:06:01;10.30;;;5.90;;
59938;SDS011;45801;51.810;19.444;2022-08-21T00:08:27;11.10;;;5.10;;
59938;SDS011;45801;51.810;19.444;2022-08-21T00:10:53;9.60;;;4.30;;
59938;SDS011;45801;51.810;19.444;2022-08-21T00:13:20;12.00;;;4.80;;
59938;SDS011;45801;51.810;19.444;2022-08-21T00:15:47;9.90;;;4.50;;
59938;SDS011;45801;51.810;19.444;2022-08-21T00:18:14;10.30;;;4.40;;
59938;SDS011;45801;51.810;19.444;2022-08-21T00:20:41;9.30;;;3.90;;
59938;SDS011;45801;51.810;19.444;2022-08-21T00:23:08;8.20;;;3.70;;
59938;SDS011;45801;51.810;19.444;2022-08-21T00:25:34;8.00;;;3.80;;
59938;SDS011;45801;51.810;19.444;2022-08-21T00:28:00;9.30;;;3.90;;
59938;SDS011;45801;51.810;19.444;2022-08-21T00:30:27;12.10;;;4.20;;
59938;SDS011;45801;51.810;19.444;2022-08-21T00:32:54;8.50;;;3.50;;
59938;SDS011;45801;51.810;19.444;2022-08-21T00:35:26;10.20;;;3.70;;
59938;SDS011;45801;51.810;19.444;2022-08-21T00:37:56;8.90;;;3.40;;
59938;SDS011;45801;51.810;19.444;2022-08-21T00:40:24;10.30;;;3.80;;
59938;SDS011;45801;51.810;19.444;2022-08-21T00:42:53;7.60;;;4.00;;
59938;SDS011;45801;51.810;19.444;2022-08-21T00:45:20;8.00;;;3.20;;
59938;SDS011;45801;51.810;19.444;2022-08-21T00:47:47;9.80;;;3.80;;
59938;SDS011;45801;51.810;19.444;2022-08-21T00:50:12;9.60;;;3.50;;
59938;SDS011;45801;51.810;19.444;2022-08-21T00:52:38;9.90;;;4.00;;
59938;SDS011;45801;51.810;19.444;2022-08-21T00:55:07;7.80;;;3.60;;
59938;SDS011;45801;51.810;19.444;2022-08-21T00:57:54;9.00;;;3.40;;
59938;SDS011;45801;51.810;19.444;2022-08-21T01:00:24;8.60;;;3.70;;
59938;SDS011;45801;51.810;19.444;2022-08-21T01:02:55;9.60;;;3.40;;
59938;SDS011;45801;51.810;19.444;2022-08-21T01:05:22;9.40;;;3.70;;
59938;SDS011;45801;51.810;19.444;2022-08-21T01:07:48;8.10;;;3.50;;
59938;SDS011;45801;51.810;19.444;2022-08-21T01:10:14;10.00;;;3.70;;
59938;SDS011;45801;51.810;19.444;2022-08-21T01:12:40;10.20;;;3.90;;
59938;SDS011;45801;51.810;19.444;2022-08-21T01:15:07;7.90;;;3.20;;
59938;SDS011;45801;51.810;19.444;2022-08-21T01:17:34;9.60;;;3.40;;
59938;SDS011;45801;51.810;19.444;2022-08-21T01:20:03;10.20;;;4.00;;
59938;SDS011;45801;51.810;19.444;2022-08-21T01:22:34;10.20;;;4.20;;
59938;SDS011;45801;51.810;19.444;2022-08-21T01:25:02;10.50;;;4.20;;
59938;SDS011;45801;51.810;19.444;2022-08-21T01:27:32;9.90;;;4.10;;
59938;SDS011;45801;51.810;19.444;2022-08-21T01:30:01;8.00;;;4.00;;
59938;SDS011;45801;51.810;19.444;2022-08-21T01:32:49;9.80;;;3.90;;
59938;SDS011;45801;51.810;19.444;2022-08-21T01:35:16;9.60;;;3.70;;
59938;SDS011;45801;51.810;19.444;2022-08-21T01:37:43;10.80;;;4.00;;
59938;SDS011;45801;51.810;19.444;2022-08-21T01:40:11;9.10;;;3.60;;
59938;SDS011;45801;51.810;19.444;2022-08-21T01:42:38;11.80;;;3.90;;
59938;SDS011;45801;51.810;19.444;2022-08-21T01:45:05;10.80;;;4.20;;
59938;SDS011;45801;51.810;19.444;2022-08-21T01:47:32;8.70;;;4.30;;
59938;SDS011;45801;51.810;19.444;2022-08-21T01:49:58;10.70;;;4.40;;
59938;SDS011;45801;51.810;19.444;2022-08-21T01:52:24;9.60;;;4.20;;
59938;SDS011;45801;51.810;19.444;2022-08-21T01:54:50;9.60;;;4.40;;
59938;SDS011;45801;51.810;19.444;2022-08-21T01:57:16;10.60;;;4.40;;
59938;SDS011;45801;51.810;19.444;2022-08-21T01:59:42;8.40;;;3.90;;
59938;SDS011;45801;51.810;19.444;2022-08-21T02:02:08;9.20;;;4.70;;
59938;SDS011;45801;51.810;19.444;2022-08-21T02:04:33;9.30;;;4.60;;
59938;SDS011;45801;51.810;19.444;2022-08-21T02:07:00;10.00;;;4.30;;
59938;SDS011;45801;51.810;19.444;2022-08-21T02:09:26;10.30;;;5.00;;
59938;SDS011;45801;51.810;19.444;2022-08-21T02:11:52;11.90;;;5.50;;
59938;SDS011;45801;51.810;19.444;2022-08-21T02:14:18;9.80;;;4.90;;
59938;SDS011;45801;51.810;19.444;2022-08-21T02:16:44;9.80;;;4.90;;
59938;SDS011;45801;51.810;19.444;2022-08-21T02:19:12;12.10;;;5.60;;
59938;SDS011;45801;51.810;19.444;2022-08-21T02:21:40;13.40;;;6.20;;
59938;SDS011;45801;51.810;19.444;2022-08-21T02:24:07;12.40;;;6.90;;
59938;SDS011;45801;51.810;19.444;2022-08-21T02:26:34;13.30;;;6.10;;
59938;SDS011;45801;51.810;19.444;2022-08-21T02:29:01;15.50;;;6.50;;
59938;SDS011;45801;51.810;19.444;2022-08-21T02:31:28;12.20;;;5.90;;
59938;SDS011;45801;51.810;19.444;2022-08-21T02:33:54;14.60;;;6.60;;
59938;SDS011;45801;51.810;19.444;2022-08-21T02:36:20;12.60;;;6.40;;
59938;SDS011;45801;51.810;19.444;2022-08-21T02:38:46;12.70;;;7.00;;
59938;SDS011;45801;51.810;19.444;2022-08-21T02:41:13;11.00;;;6.40;;
59938;SDS011;45801;51.810;19.444;2022-08-21T02:43:40;12.60;;;6.80;;
59938;SDS011;45801;51.810;19.444;2022-08-21T02:46:07;10.70;;;6.50;;
59938;SDS011;45801;51.810;19.444;2022-08-21T02:48:35;10.90;;;6.60;;
59938;SDS011;45801;51.810;19.444;2022-08-21T02:51:03;14.10;;;7.30;;
59938;SDS011;45801;51.810;19.444;2022-08-21T02:53:31;12.60;;;6.60;;
59938;SDS011;45801;51.810;19.444;2022-08-21T02:55:58;12.70;;;6.80;;
59938;SDS011;45801;51.810;19.444;2022-08-21T02:58:27;11.60;;;6.80;;
59938;SDS011;45801;51.810;19.444;2022-08-21T03:00:55;13.70;;;8.70;;
59938;SDS011;45801;51.810;19.444;2022-08-21T03:03:21;14.40;;;7.60;;
59938;SDS011;45801;51.810;19.444;2022-08-21T03:05:48;11.80;;;7.10;;
59938;SDS011;45801;51.810;19.444;2022-08-21T03:08:14;13.50;;;7.90;;
59938;SDS011;45801;51.810;19.444;2022-08-21T03:10:45;12.20;;;7.70;;
59938;SDS011;45801;51.810;19.444;2022-08-21T03:13:13;12.00;;;6.80;;
59938;SDS011;45801;51.810;19.444;2022-08-21T03:15:40;11.70;;;6.70;;
59938;SDS011;45801;51.810;19.444;2022-08-21T03:18:05;14.10;;;6.60;;
59938;SDS011;45801;51.810;19.444;2022-08-21T03:20:32;13.50;;;7.60;;
59938;SDS011;45801;51.810;19.444;2022-08-21T03:23:01;12.10;;;7.30;;
59938;SDS011;45801;51.810;19.444;2022-08-21T03:25:29;12.00;;;7.30;;
59938;SDS011;45801;51.810;19.444;2022-08-21T03:27:57;13.10;;;6.90;;
59938;SDS011;45801;51.810;19.444;2022-08-21T03:30:24;10.40;;;5.60;;
59938;SDS011;45801;51.810;19.444;2022-08-21T03:32:50;11.60;;;7.30;;
59938;SDS011;45801;51.810;19.444;2022-08-21T03:35:16;10.90;;;6.80;;
59938;SDS011;45801;51.810;19.444;2022-08-21T03:37:43;15.20;;;7.30;;
59938;SDS011;45801;51.810;19.444;2022-08-21T03:40:10;12.60;;;7.60;;
59938;SDS011;45801;51.810;19.444;2022-08-21T03:42:37;11.60;;;6.90;;
59938;SDS011;45801;51.810;19.444;2022-08-21T03:45:04;12.20;;;7.10;;
59938;SDS011;45801;51.810;19.444;2022-08-21T03:47:30;10.80;;;6.80;;
59938;SDS011;45801;51.810;19.444;2022-08-21T03:49:56;10.20;;;6.20;;
59938;SDS011;45801;51.810;19.444;2022-08-21T03:52:22;11.10;;;6.40;;
59938;SDS011;45801;51.810;19.444;2022-08-21T03:54:48;11.40;;;6.90;;
59938;SDS011;45801;51.810;19.444;2022-08-21T03:57:15;11.60;;;7.10;;
59938;SDS011;45801;51.810;19.444;2022-08-21T03:59:41;11.40;;;6.40;;
59938;SDS011;45801;51.810;19.444;2022-08-21T04:02:08;10.70;;;6.70;;
59938;SDS011;45801;51.810;19.444;2022-08-21T04:04:35;11.40;;;6.90;;
59938;SDS011;45801;51.810;19.444;2022-08-21T04:07:02;12.40;;;7.00;;
59938;SDS011;45801;51.810;19.444;2022-08-21T04:09:28;12.60;;;7.00;;
59938;SDS011;45801;51.810;19.444;2022-08-21T04:11:55;11.10;;;6.70;;
59938;SDS011;45801;51.810;19.444;2022-08-21T04:14:22;11.20;;;6.60;;
59938;SDS011;45801;51.810;19.444;2022-08-21T04:16:49;9.80;;;5.90;;
59938;SDS011;45801;51.810;19.444;2022-08-21T04:19:15;11.40;;;6.70;;
59938;SDS011;45801;51.810;19.444;2022-08-21T04:21:41;10.20;;;6.30;;
59938;SDS011;45801;51.810;19.444;2022-08-21T04:24:08;9.60;;;6.30;;
59938;SDS011;45801;51.810;19.444;2022-08-21T04:26:35;11.00;;;6.20;;
59938;SDS011;45801;51.810;19.444;2022-08-21T04:29:02;9.90;;;6.00;;
59938;SDS011;45801;51.810;19.444;2022-08-21T04:31:32;10.00;;;6.40;;
59938;SDS011;45801;51.810;19.444;2022-08-21T04:33:58;11.50;;;5.80;;
59938;SDS011;45801;51.810;19.444;2022-08-21T04:36:24;10.50;;;5.90;;
59938;SDS011;45801;51.810;19.444;2022-08-21T04:38:50;10.90;;;6.10;;
59938;SDS011;45801;51.810;19.444;2022-08-21T04:41:16;10.90;;;6.50;;
59938;SDS011;45801;51.810;19.444;2022-08-21T04:43:42;10.70;;;6.60;;
59938;SDS011;45801;51.810;19.444;2022-08-21T04:46:08;11.40;;;6.20;;
59938;SDS011;45801;51.810;19.444;2022-08-21T04:48:34;9.50;;;6.30;;
59938;SDS011;45801;51.810;19.444;2022-08-21T04:51:02;10.20;;;6.00;;
59938;SDS011;45801;51.810;19.444;2022-08-21T04:53:40;11.20;;;5.60;;
59938;SDS011;45801;51.810;19.444;2022-08-21T04:56:24;11.10;;;6.30;;
59938;SDS011;45801;51.810;19.444;2022-08-21T04:58:55;10.90;;;6.60;;
59938;SDS011;45801;51.810;19.444;2022-08-21T05:01:24;9.80;;;5.90;;
59938;SDS011;45801;51.810;19.444;2022-08-21T05:03:53;11.60;;;6.00;;
59938;SDS011;45801;51.810;19.444;2022-08-21T05:06:21;11.20;;;6.40;;
59938;SDS011;45801;51.810;19.444;2022-08-21T05:08:49;11.90;;;6.70;;
59938;SDS011;45801;51.810;19.444;2022-08-21T05:11:18;10.70;;;6.50;;
59938;SDS011;45801;51.810;19.444;2022-08-21T05:13:45;11.50;;;6.70;;
59938;SDS011;45801;51.810;19.444;2022-08-21T05:16:11;12.30;;;7.00;;
59938;SDS011;45801;51.810;19.444;2022-08-21T05:18:37;12.80;;;7.70;;
59938;SDS011;45801;51.810;19.444;2022-08-21T05:21:03;11.80;;;8.10;;
59938;SDS011;45801;51.810;19.444;2022-08-21T05:23:29;13.00;;;8.20;;
59938;SDS011;45801;51.810;19.444;2022-08-21T05:25:55;12.60;;;8.30;;
59938;SDS011;45801;51.810;19.444;2022-08-21T05:28:21;12.90;;;8.10;;
59938;SDS011;45801;51.810;19.444;2022-08-21T05:30:47;11.60;;;7.60;;
59938;SDS011;45801;51.810;19.444;2022-08-21T05:33:13;12.20;;;8.30;;
59938;SDS011;45801;51.810;19.444;2022-08-21T05:35:39;13.30;;;9.20;;
59938;SDS011;45801;51.810;19.444;2022-08-21T05:38:06;12.20;;;8.30;;
59938;SDS011;45801;51.810;19.444;2022-08-21T05:40:32;12.50;;;7.70;;
59938;SDS011;45801;51.810;19.444;2022-08-21T05:42:58;13.10;;;7.90;;
59938;SDS011;45801;51.810;19.444;2022-08-21T05:45:33;13.30;;;7.80;;
59938;SDS011;45801;51.810;19.444;2022-08-21T05:48:05;15.00;;;7.60;;
59938;SDS011;45801;51.810;19.444;2022-08-21T05:50:35;15.30;;;7.80;;
59938;SDS011;45801;51.810;19.444;2022-08-21T05:53:03;13.30;;;8.40;;
59938;SDS011;45801;51.810;19.444;2022-08-21T05:55:30;14.20;;;7.70;;
59938;SDS011;45801;51.810;19.444;2022-08-21T05:57:55;12.80;;;8.30;;
59938;SDS011;45801;51.810;19.444;2022-08-21T06:00:21;13.80;;;8.70;;
59938;SDS011;45801;51.810;19.444;2022-08-21T06:02:49;12.00;;;7.80;;
59938;SDS011;45801;51.810;19.444;2022-08-21T06:05:16;13.90;;;8.40;;
59938;SDS011;45801;51.810;19.444;2022-08-21T06:07:42;13.00;;;7.30;;
59938;SDS011;45801;51.810;19.444;2022-08-21T06:10:08;13.50;;;7.30;;
59938;SDS011;45801;51.810;19.444;2022-08-21T06:12:34;12.00;;;7.80;;
59938;SDS011;45801;51.810;19.444;2022-08-21T06:15:00;14.50;;;7.70;;
59938;SDS011;45801;51.810;19.444;2022-08-21T06:17:26;13.00;;;8.30;;
59938;SDS011;45801;51.810;19.444;2022-08-21T06:19:52;10.90;;;7.90;;
59938;SDS011;45801;51.810;19.444;2022-08-21T06:22:18;13.40;;;7.60;;
59938;SDS011;45801;51.810;19.444;2022-08-21T06:24:45;12.60;;;7.50;;
59938;SDS011;45801;51.810;19.444;2022-08-21T06:27:11;12.00;;;7.60;;
59938;SDS011;45801;51.810;19.444;2022-08-21T06:29:36;11.90;;;7.40;;
59938;SDS011;45801;51.810;19.444;2022-08-21T06:32:04;12.20;;;7.40;;
59938;SDS011;45801;51.810;19.444;2022-08-21T06:34:32;11.40;;;7.50;;
59938;SDS011;45801;51.810;19.444;2022-08-21T06:37:01;11.10;;;6.90;;
59938;SDS011;45801;51.810;19.444;2022-08-21T06:39:27;12.20;;;7.00;;
59938;SDS011;45801;51.810;19.444;2022-08-21T06:41:53;11.10;;;7.40;;
59938;SDS011;45801;51.810;19.444;2022-08-21T06:44:20;13.80;;;7.60;;
59938;SDS011;45801;51.810;19.444;2022-08-21T06:46:46;14.50;;;7.10;;
59938;SDS011;45801;51.810;19.444;2022-08-21T06:49:13;10.90;;;6.90;;
59938;SDS011;45801;51.810;19.444;2022-08-21T06:51:39;12.40;;;7.40;;
59938;SDS011;45801;51.810;19.444;2022-08-21T06:54:06;11.50;;;7.50;;
59938;SDS011;45801;51.810;19.444;2022-08-21T06:56:34;12.40;;;8.10;;
59938;SDS011;45801;51.810;19.444;2022-08-21T06:59:03;12.30;;;7.40;;
59938;SDS011;45801;51.810;19.444;2022-08-21T07:01:30;11.80;;;7.60;;
59938;SDS011;45801;51.810;19.444;2022-08-21T07:03:57;11.60;;;7.10;;
59938;SDS011;45801;51.810;19.444;2022-08-21T07:06:23;12.20;;;6.60;;
59938;SDS011;45801;51.810;19.444;2022-08-21T07:08:50;12.80;;;6.90;;
59938;SDS011;45801;51.810;19.444;2022-08-21T07:11:20;9.90;;;6.00;;
59938;SDS011;45801;51.810;19.444;2022-08-21T07:13:48;10.70;;;6.00;;
59938;SDS011;45801;51.810;19.444;2022-08-21T07:16:14;12.50;;;6.60;;
59938;SDS011;45801;51.810;19.444;2022-08-21T07:18:40;10.90;;;6.90;;
59938;SDS011;45801;51.810;19.444;2022-08-21T07:21:06;10.00;;;6.20;;
59938;SDS011;45801;51.810;19.444;2022-08-21T07:23:34;10.80;;;6.50;;
59938;SDS011;45801;51.810;19.444;2022-08-21T07:26:02;12.40;;;6.80;;
59938;SDS011;45801;51.810;19.444;2022-08-21T07:28:29;9.00;;;6.10;;
59938;SDS011;45801;51.810;19.444;2022-08-21T07:30:56;11.30;;;7.30;;
59938;SDS011;45801;51.810;19.444;2022-08-21T07:33:24;11.10;;;6.10;;
59938;SDS011;45801;51.810;19.444;2022-08-21T07:35:52;11.00;;;6.20;;
59938;SDS011;45801;51.810;19.444;2022-08-21T07:38:18;9.00;;;5.90;;
59938;SDS011;45801;51.810;19.444;2022-08-21T07:40:45;11.50;;;5.70;;
59938;SDS011;45801;51.810;19.444;2022-08-21T07:43:11;10.00;;;6.20;;
59938;SDS011;45801;51.810;19.444;2022-08-21T07:45:37;11.00;;;6.10;;
59938;SDS011;45801;51.810;19.444;2022-08-21T07:48:04;9.20;;;6.30;;
59938;SDS011;45801;51.810;19.444;2022-08-21T07:50:30;11.00;;;7.10;;
59938;SDS011;45801;51.810;19.444;2022-08-21T07:52:55;12.70;;;7.30;;
59938;SDS011;45801;51.810;19.444;2022-08-21T07:55:22;11.90;;;7.30;;
59938;SDS011;45801;51.810;19.444;2022-08-21T07:57:48;10.40;;;6.00;;
59938;SDS011;45801;51.810;19.444;2022-08-21T08:00:16;12.30;;;7.30;;
59938;SDS011;45801;51.810;19.444;2022-08-21T08:02:46;11.90;;;7.60;;
59938;SDS011;45801;51.810;19.444;2022-08-21T08:05:16;9.30;;;6.00;;
59938;SDS011;45801;51.810;19.444;2022-08-21T08:07:44;9.80;;;6.50;;
59938;SDS011;45801;51.810;19.444;2022-08-21T08:10:10;9.90;;;5.80;;
59938;SDS011;45801;51.810;19.444;2022-08-21T08:12:37;10.90;;;6.00;;
59938;SDS011;45801;51.810;19.444;2022-08-21T08:15:05;8.80;;;5.20;;
59938;SDS011;45801;51.810;19.444;2022-08-21T08:17:33;9.90;;;5.50;;
59938;SDS011;45801;51.810;19.444;2022-08-21T08:19:59;9.70;;;5.60;;
59938;SDS011;45801;51.810;19.444;2022-08-21T08:22:26;9.30;;;5.10;;
59938;SDS011;45801;51.810;19.444;2022-08-21T08:24:53;10.30;;;5.50;;
59938;SDS011;45801;51.810;19.444;2022-08-21T08:27:19;9.70;;;5.40;;
59938;SDS011;45801;51.810;19.444;2022-08-21T08:29:46;8.90;;;5.40;;
59938;SDS011;45801;51.810;19.444;2022-08-21T08:32:13;10.30;;;5.20;;
59938;SDS011;45801;51.810;19.444;2022-08-21T08:34:39;9.70;;;5.00;;
59938;SDS011;45801;51.810;19.444;2022-08-21T08:37:06;8.00;;;4.60;;
59938;SDS011;45801;51.810;19.444;2022-08-21T08:39:33;8.80;;;4.60;;
59938;SDS011;45801;51.810;19.444;2022-08-21T08:42:05;8.90;;;4.60;;
59938;SDS011;45801;51.810;19.444;2022-08-21T08:44:43;9.50;;;4.40;;
59938;SDS011;45801;51.810;19.444;2022-08-21T08:47:11;9.50;;;5.40;;
59938;SDS011;45801;51.810;19.444;2022-08-21T08:49:42;9.20;;;4.70;;
59938;SDS011;45801;51.810;19.444;2022-08-21T08:52:22;8.00;;;4.30;;
59938;SDS011;45801;51.810;19.444;2022-08-21T08:55:06;8.20;;;4.90;;
59938;SDS011;45801;51.810;19.444;2022-08-21T08:57:37;9.40;;;4.90;;
59938;SDS011;45801;51.810;19.444;2022-08-21T09:00:07;8.60;;;4.70;;
59938;SDS011;45801;51.810;19.444;2022-08-21T09:02:38;7.90;;;4.20;;
59938;SDS011;45801;51.810;19.444;2022-08-21T09:19:56;8.70;;;4.30;;
59938;SDS011;45801;51.810;19.444;2022-08-21T09:25:34;10.00;;;5.00;;
59938;SDS011;45801;51.810;19.444;2022-08-21T09:28:11;9.00;;;5.80;;
59938;SDS011;45801;51.810;19.444;2022-08-21T09:30:40;9.50;;;5.90;;
59938;SDS011;45801;51.810;19.444;2022-08-21T09:33:06;12.00;;;6.30;;
59938;SDS011;45801;51.810;19.444;2022-08-21T09:35:33;9.90;;;6.00;;
59938;SDS011;45801;51.810;19.444;2022-08-21T09:38:02;8.70;;;5.40;;
59938;SDS011;45801;51.810;19.444;2022-08-21T09:40:36;12.30;;;5.80;;
59938;SDS011;45801;51.810;19.444;2022-08-21T09:45:34;9.30;;;6.00;;
59938;SDS011;45801;51.810;19.444;2022-08-21T09:48:21;10.10;;;5.70;;
59938;SDS011;45801;51.810;19.444;2022-08-21T09:50:49;9.20;;;5.50;;
59938;SDS011;45801;51.810;19.444;2022-08-21T09:53:20;11.00;;;6.00;;
59938;SDS011;45801;51.810;19.444;2022-08-21T09:55:51;10.40;;;5.50;;
59938;SDS011;45801;51.810;19.444;2022-08-21T09:58:39;10.20;;;5.80;;
59938;SDS011;45801;51.810;19.444;2022-08-21T10:01:11;8.80;;;6.00;;
59938;SDS011;45801;51.810;19.444;2022-08-21T10:03:40;10.80;;;6.40;;
59938;SDS011;45801;51.810;19.444;2022-08-21T10:06:07;11.50;;;5.80;;
59938;SDS011;45801;51.810;19.444;2022-08-21T10:08:39;10.40;;;5.80;;
59938;SDS011;45801;51.810;19.444;2022-08-21T10:11:10;9.70;;;5.90;;
59938;SDS011;45801;51.810;19.444;2022-08-21T10:13:48;10.10;;;5.70;;
59938;SDS011;45801;51.810;19.444;2022-08-21T10:16:31;9.20;;;5.60;;
59938;SDS011;45801;51.810;19.444;2022-08-21T10:22:26;10.20;;;6.20;;
59938;SDS011;45801;51.810;19.444;2022-08-21T10:33:33;8.30;;;4.80;;
59938;SDS011;45801;51.810;19.444;2022-08-21T10:39:40;9.10;;;5.10;;
59938;SDS011;45801;51.810;19.444;2022-08-21T10:45:00;11.40;;;5.90;;
59938;SDS011;45801;51.810;19.444;2022-08-21T10:47:40;9.70;;;5.50;;
59938;SDS011;45801;51.810;19.444;2022-08-21T10:53:04;10.50;;;6.20;;
59938;SDS011;45801;51.810;19.444;2022-08-21T10:55:42;8.90;;;5.30;;
59938;SDS011;45801;51.810;19.444;2022-08-21T10:58:14;9.90;;;5.50;;
59938;SDS011;45801;51.810;19.444;2022-08-21T11:01:20;8.60;;;5.10;;
59938;SDS011;45801;51.810;19.444;2022-08-21T11:04:07;9.90;;;5.60;;
59938;SDS011;45801;51.810;19.444;2022-08-21T11:06:39;8.20;;;5.20;;
59938;SDS011;45801;51.810;19.444;2022-08-21T11:09:12;9.10;;;5.50;;
59938;SDS011;45801;51.810;19.444;2022-08-21T11:11:52;9.00;;;5.40;;
59938;SDS011;45801;51.810;19.444;2022-08-21T11:17:12;10.00;;;5.80;;
59938;SDS011;45801;51.810;19.444;2022-08-21T11:22:43;9.30;;;5.40;;
59938;SDS011;45801;51.810;19.444;2022-08-21T11:25:22;8.50;;;5.40;;
59938;SDS011;45801;51.810;19.444;2022-08-21T11:28:00;10.60;;;5.60;;
59938;SDS011;45801;51.810;19.444;2022-08-21T11:30:38;9.90;;;5.20;;
59938;SDS011;45801;51.810;19.444;2022-08-21T11:36:14;10.00;;;5.20;;
59938;SDS011;45801;51.810;19.444;2022-08-21T11:39:26;8.60;;;5.10;;
59938;SDS011;45801;51.810;19.444;2022-08-21T11:42:00;8.40;;;5.30;;
59938;SDS011;45801;51.810;19.444;2022-08-21T11:44:46;9.80;;;5.40;;
59938;SDS011;45801;51.810;19.444;2022-08-21T11:47:53;8.90;;;4.90;;
59938;SDS011;45801;51.810;19.444;2022-08-21T11:50:27;8.10;;;5.10;;
59938;SDS011;45801;51.810;19.444;2022-08-21T12:00:30;9.20;;;5.20;;
59938;SDS011;45801;51.810;19.444;2022-08-21T12:03:06;8.90;;;5.50;;
59938;SDS011;45801;51.810;19.444;2022-08-21T12:05:39;9.10;;;5.00;;
59938;SDS011;45801;51.810;19.444;2022-08-21T12:08:13;7.40;;;4.60;;
59938;SDS011;45801;51.810;19.444;2022-08-21T12:11:03;8.80;;;4.80;;
59938;SDS011;45801;51.810;19.444;2022-08-21T12:13:31;8.60;;;5.10;;
59938;SDS011;45801;51.810;19.444;2022-08-21T12:16:09;8.70;;;5.10;;
59938;SDS011;45801;51.810;19.444;2022-08-21T12:18:37;9.00;;;5.10;;
59938;SDS011;45801;51.810;19.444;2022-08-21T12:24:00;9.60;;;5.60;;
59938;SDS011;45801;51.810;19.444;2022-08-21T12:29:31;8.30;;;5.30;;
59938;SDS011;45801;51.810;19.444;2022-08-21T12:32:02;9.10;;;5.20;;
59938;SDS011;45801;51.810;19.444;2022-08-21T12:34:53;9.30;;;5.70;;
59938;SDS011;45801;51.810;19.444;2022-08-21T12:40:03;8.30;;;5.50;;
59938;SDS011;45801;51.810;19.444;2022-08-21T12:42:39;9.00;;;5.80;;
59938;SDS011;45801;51.810;19.444;2022-08-21T12:45:52;8.50;;;5.00;;
59938;SDS011;45801;51.810;19.444;2022-08-21T12:48:14;9.20;;;5.10;;
59938;SDS011;45801;51.810;19.444;2022-08-21T12:50:50;9.90;;;4.90;;
59938;SDS011;45801;51.810;19.444;2022-08-21T12:56:09;9.20;;;5.80;;
59938;SDS011;45801;51.810;19.444;2022-08-21T12:58:39;8.80;;;5.60;;
59938;SDS011;45801;51.810;19.444;2022-08-21T13:01:22;10.10;;;6.00;;
59938;SDS011;45801;51.810;19.444;2022-08-21T13:04:06;9.40;;;6.20;;
59938;SDS011;45801;51.810;19.444;2022-08-21T13:06:42;10.20;;;6.20;;
59938;SDS011;45801;51.810;19.444;2022-08-21T13:09:11;8.70;;;5.20;;
59938;SDS011;45801;51.810;19.444;2022-08-21T13:11:40;11.00;;;5.60;;
59938;SDS011;45801;51.810;19.444;2022-08-21T13:14:55;12.20;;;5.60;;
59938;SDS011;45801;51.810;19.444;2022-08-21T13:17:06;9.30;;;5.10;;
59938;SDS011;45801;51.810;19.444;2022-08-21T13:19:33;10.20;;;6.20;;
59938;SDS011;45801;51.810;19.444;2022-08-21T13:22:00;9.20;;;5.30;;
59938;SDS011;45801;51.810;19.444;2022-08-21T13:24:29;8.30;;;5.30;;
59938;SDS011;45801;51.810;19.444;2022-08-21T13:26:58;9.10;;;6.00;;
59938;SDS011;45801;51.810;19.444;2022-08-21T13:29:28;8.30;;;5.40;;
59938;SDS011;45801;51.810;19.444;2022-08-21T13:32:01;8.20;;;5.20;;
59938;SDS011;45801;51.810;19.444;2022-08-21T13:34:31;10.00;;;5.40;;
59938;SDS011;45801;51.810;19.444;2022-08-21T13:37:07;8.10;;;5.70;;
59938;SDS011;45801;51.810;19.444;2022-08-21T13:39:34;8.00;;;5.00;;
59938;SDS011;45801;51.810;19.444;2022-08-21T13:42:01;8.80;;;5.00;;
59938;SDS011;45801;51.810;19.444;2022-08-21T13:47:02;9.10;;;5.00;;
59938;SDS011;45801;51.810;19.444;2022-08-21T13:49:31;8.20;;;4.60;;
59938;SDS011;45801;51.810;19.444;2022-08-21T13:51:59;9.90;;;5.20;;
59938;SDS011;45801;51.810;19.444;2022-08-21T13:54:26;8.60;;;4.90;;
59938;SDS011;45801;51.810;19.444;2022-08-21T13:57:03;8.70;;;5.20;;
59938;SDS011;45801;51.810;19.444;2022-08-21T13:59:34;9.90;;;5.30;;
59938;SDS011;45801;51.810;19.444;2022-08-21T14:02:08;9.60;;;6.10;;
59938;SDS011;45801;51.810;19.444;2022-08-21T14:04:39;9.60;;;4.90;;
59938;SDS011;45801;51.810;19.444;2022-08-21T14:07:20;8.50;;;5.10;;
59938;SDS011;45801;51.810;19.444;2022-08-21T14:09:52;14.70;;;11.20;;
59938;SDS011;45801;51.810;19.444;2022-08-21T14:12:24;9.90;;;5.60;;
59938;SDS011;45801;51.810;19.444;2022-08-21T14:14:53;9.10;;;5.10;;
59938;SDS011;45801;51.810;19.444;2022-08-21T14:17:29;7.80;;;4.80;;
59938;SDS011;45801;51.810;19.444;2022-08-21T14:20:00;8.40;;;4.90;;
59938;SDS011;45801;51.810;19.444;2022-08-21T14:22:40;8.20;;;4.90;;
59938;SDS011;45801;51.810;19.444;2022-08-21T14:27:48;8.10;;;5.20;;
59938;SDS011;45801;51.810;19.444;2022-08-21T14:30:22;9.50;;;5.00;;
59938;SDS011;45801;51.810;19.444;2022-08-21T14:32:54;7.80;;;5.00;;
59938;SDS011;45801;51.810;19.444;2022-08-21T14:35:20;7.80;;;4.90;;
59938;SDS011;45801;51.810;19.444;2022-08-21T14:37:47;8.40;;;4.70;;
59938;SDS011;45801;51.810;19.444;2022-08-21T14:40:17;10.20;;;5.50;;
59938;SDS011;45801;51.810;19.444;2022-08-21T14:42:45;9.00;;;5.20;;
59938;SDS011;45801;51.810;19.444;2022-08-21T14:45:20;8.30;;;5.00;;
59938;SDS011;45801;51.810;19.444;2022-08-21T14:47:51;10.00;;;5.30;;
59938;SDS011;45801;51.810;19.444;2022-08-21T14:50:17;8.10;;;5.10;;
59938;SDS011;45801;51.810;19.444;2022-08-21T14:52:43;6.60;;;4.30;;
59938;SDS011;45801;51.810;19.444;2022-08-21T14:55:11;9.40;;;5.10;;
59938;SDS011;45801;51.810;19.444;2022-08-21T14:57:42;9.00;;;4.80;;
59938;SDS011;45801;51.810;19.444;2022-08-21T15:00:12;8.30;;;4.20;;
59938;SDS011;45801;51.810;19.444;2022-08-21T15:02:39;9.20;;;4.90;;
59938;SDS011;45801;51.810;19.444;2022-08-21T15:05:05;8.10;;;4.60;;
59938;SDS011;45801;51.810;19.444;2022-08-21T15:07:31;9.50;;;5.50;;
59938;SDS011;45801;51.810;19.444;2022-08-21T15:09:57;8.50;;;4.90;;
59938;SDS011;45801;51.810;19.444;2022-08-21T15:12:23;7.80;;;4.60;;
59938;SDS011;45801;51.810;19.444;2022-08-21T15:14:50;8.50;;;4.80;;
59938;SDS011;45801;51.810;19.444;2022-08-21T15:17:18;9.00;;;5.10;;
59938;SDS011;45801;51.810;19.444;2022-08-21T15:19:44;8.70;;;4.70;;
59938;SDS011;45801;51.810;19.444;2022-08-21T15:22:10;7.90;;;4.20;;
59938;SDS011;45801;51.810;19.444;2022-08-21T15:24:36;7.80;;;4.70;;
59938;SDS011;45801;51.810;19.444;2022-08-21T15:27:02;8.10;;;4.60;;
59938;SDS011;45801;51.810;19.444;2022-08-21T15:29:29;9.00;;;4.40;;
59938;SDS011;45801;51.810;19.444;2022-08-21T15:31:57;9.80;;;4.70;;
59938;SDS011;45801;51.810;19.444;2022-08-21T15:34:26;9.90;;;4.60;;
59938;SDS011;45801;51.810;19.444;2022-08-21T15:36:56;9.20;;;5.70;;
59938;SDS011;45801;51.810;19.444;2022-08-21T15:39:23;10.80;;;6.70;;
59938;SDS011;45801;51.810;19.444;2022-08-21T15:41:50;12.30;;;7.80;;
59938;SDS011;45801;51.810;19.444;2022-08-21T15:44:17;11.80;;;8.40;;
59938;SDS011;45801;51.810;19.444;2022-08-21T15:46:43;16.40;;;11.10;;
59938;SDS011;45801;51.810;19.444;2022-08-21T15:49:10;14.80;;;10.70;;
59938;SDS011;45801;51.810;19.444;2022-08-21T15:51:36;14.80;;;11.40;;
59938;SDS011;45801;51.810;19.444;2022-08-21T15:54:02;17.20;;;12.20;;
59938;SDS011;45801;51.810;19.444;2022-08-21T15:56:33;17.50;;;12.50;;